createdAt,value
2019-03-31T00:00:47.286Z,23.90
2019-03-31T00:03:52.828Z,22.57
2019-03-31T00:06:58.294Z,23.80
2019-03-31T00:10:04.686Z,21.97
2019-03-31T00:13:10.163Z,23.07
2019-03-31T00:16:15.860Z,21.67
2019-03-31T00:19:21.492Z,23.60
2019-03-31T00:22:27.034Z,21.83
2019-03-31T00:25:32.581Z,21.20
2019-03-31T00:28:38.049Z,22.50
2019-03-31T00:31:43.706Z,21.40
2019-03-31T00:34:49.261Z,23.27
2019-03-31T00:37:54.745Z,19.73
2019-03-31T00:41:00.226Z,22.97
2019-03-31T00:44:05.849Z,21.47
2019-03-31T00:47:11.388Z,21.60
2019-03-31T00:50:16.870Z,22.20
2019-03-31T00:53:22.499Z,22.13
2019-03-31T00:56:27.980Z,21.40
2019-03-31T00:59:33.530Z,21.33
2019-03-31T01:02:39.136Z,20.63
2019-03-31T01:05:45.271Z,21.63
2019-03-31T01:08:51.093Z,19.40
2019-03-31T01:11:57.216Z,20.50
2019-03-31T01:15:04.593Z,19.07
2019-03-31T01:18:11.385Z,20.40
2019-03-31T01:21:17.402Z,20.10
2019-03-31T01:24:23.136Z,21.43
2019-03-31T01:27:28.665Z,19.90
2019-03-31T01:30:34.364Z,19.00
2019-03-31T01:33:39.998Z,20.53
2019-03-31T01:36:45.552Z,20.53
2019-03-31T01:39:51.179Z,20.73
2019-03-31T01:42:56.794Z,21.40
2019-03-31T01:46:02.711Z,20.20
2019-03-31T01:49:08.346Z,20.33
2019-03-31T01:52:13.808Z,19.87
2019-03-31T01:55:19.556Z,19.50
2019-03-31T01:58:25.309Z,18.90
2019-03-31T02:01:31.350Z,19.10
2019-03-31T02:04:36.946Z,19.60
2019-03-31T02:07:42.565Z,18.77
2019-03-31T02:10:48.113Z,17.70
2019-03-31T02:13:53.644Z,20.10
2019-03-31T02:16:59.117Z,19.63
2019-03-31T02:20:05.331Z,18.20
2019-03-31T02:23:10.944Z,19.33
2019-03-31T02:26:16.500Z,18.80
2019-03-31T02:29:22.037Z,19.97
2019-03-31T02:32:27.577Z,19.03
2019-03-31T02:35:33.043Z,19.60
2019-03-31T02:38:38.509Z,19.53
2019-03-31T02:41:43.982Z,19.93
2019-03-31T02:44:49.522Z,18.93
2019-03-31T02:47:55.156Z,19.47
2019-03-31T02:51:01.486Z,18.70
2019-03-31T02:54:07.191Z,19.63
2019-03-31T02:57:12.975Z,17.60
2019-03-31T03:00:18.529Z,18.07
2019-03-31T03:03:24.210Z,19.00
2019-03-31T03:06:32.019Z,19.23
2019-03-31T03:09:39.636Z,19.00
2019-03-31T03:12:47.746Z,20.70
2019-03-31T03:16:27.666Z,18.53
2019-03-31T03:19:33.241Z,21.10
2019-03-31T03:22:38.706Z,20.27
2019-03-31T03:25:55.619Z,19.90
2019-03-31T03:28:51.853Z,19.00
2019-03-31T03:31:57.453Z,19.30
2019-03-31T03:35:03.088Z,18.30
2019-03-31T03:38:08.629Z,20.50
2019-03-31T03:41:14.246Z,20.03
2019-03-31T03:44:19.741Z,20.57
2019-03-31T03:47:25.278Z,21.17
2019-03-31T03:50:30.815Z,21.23
2019-03-31T03:53:36.292Z,21.30
2019-03-31T03:56:41.863Z,21.43
2019-03-31T03:59:47.332Z,20.57
2019-03-31T04:02:52.796Z,20.10
2019-03-31T04:05:58.350Z,21.50
2019-03-31T04:09:05.931Z,22.10
2019-03-31T04:12:11.561Z,20.00
2019-03-31T04:15:17.138Z,21.70
2019-03-31T04:18:22.621Z,21.43
2019-03-31T04:21:28.271Z,21.07
2019-03-31T04:24:34.074Z,21.07
2019-03-31T04:27:39.667Z,20.60
2019-03-31T04:30:45.136Z,20.80
2019-03-31T04:33:52.888Z,22.10
2019-03-31T04:36:57.767Z,20.07
2019-03-31T04:40:03.568Z,20.93
2019-03-31T04:43:09.110Z,20.40
2019-03-31T04:46:14.644Z,20.13
2019-03-31T04:49:20.191Z,20.30
2019-03-31T04:52:25.647Z,19.90
2019-03-31T04:55:31.198Z,20.07
2019-03-31T04:58:36.762Z,20.57
2019-03-31T05:01:42.242Z,21.17
2019-03-31T05:04:47.784Z,20.13
2019-03-31T05:07:53.388Z,20.63
2019-03-31T05:10:58.935Z,19.07
2019-03-31T05:14:04.476Z,19.57
2019-03-31T05:17:09.934Z,20.83
2019-03-31T05:20:15.490Z,19.90
2019-03-31T05:23:21.022Z,20.17
2019-03-31T05:26:26.507Z,19.43
2019-03-31T05:29:32.255Z,20.33
2019-03-31T05:32:37.717Z,20.60
2019-03-31T05:35:43.202Z,20.73
2019-03-31T05:38:48.704Z,21.30
2019-03-31T05:41:54.179Z,20.30
2019-03-31T05:44:59.872Z,19.90
2019-03-31T05:48:05.493Z,19.50
2019-03-31T05:51:11.110Z,19.50
2019-03-31T05:54:16.624Z,20.37
2019-03-31T05:57:22.081Z,20.30
2019-03-31T06:00:40.263Z,19.03
2019-03-31T06:03:45.717Z,19.70
2019-03-31T06:06:51.414Z,20.80
2019-03-31T06:09:56.961Z,21.17
2019-03-31T06:13:02.596Z,20.50
2019-03-31T06:16:08.208Z,19.80
2019-03-31T06:19:13.688Z,19.87
2019-03-31T06:22:19.244Z,19.77
2019-03-31T06:25:24.922Z,20.60
2019-03-31T06:28:30.520Z,20.40
2019-03-31T06:31:36.078Z,21.50
2019-03-31T06:34:47.597Z,19.00
2019-03-31T06:37:48.778Z,22.20
2019-03-31T06:40:55.401Z,21.67
2019-03-31T06:44:00.949Z,22.73
2019-03-31T06:47:06.437Z,20.10
2019-03-31T06:50:12.088Z,22.80
2019-03-31T06:53:17.712Z,20.80
2019-03-31T06:56:23.288Z,20.87
2019-03-31T06:59:31.108Z,21.10
2019-03-31T07:02:36.775Z,22.37
2019-03-31T07:05:42.333Z,20.40
2019-03-31T07:08:47.857Z,21.93
2019-03-31T07:11:53.341Z,21.73
2019-03-31T07:14:58.806Z,21.80
2019-03-31T07:18:04.527Z,22.23
2019-03-31T07:21:10.096Z,22.10
2019-03-31T07:24:15.636Z,20.77
2019-03-31T07:27:21.195Z,22.57
2019-03-31T07:30:26.830Z,21.67
2019-03-31T07:33:32.309Z,20.90
2019-03-31T07:36:37.883Z,21.67
2019-03-31T07:39:45.975Z,22.70
2019-03-31T07:42:51.321Z,22.63
2019-03-31T07:45:57.145Z,23.23
2019-03-31T07:49:02.788Z,22.27
2019-03-31T07:52:08.400Z,22.43
2019-03-31T07:55:14.493Z,21.33
2019-03-31T07:58:19.993Z,21.97
2019-03-31T08:01:25.541Z,21.97
2019-03-31T08:04:31.028Z,21.20
2019-03-31T08:07:36.676Z,21.77
2019-03-31T08:10:42.140Z,21.70
2019-03-31T08:13:47.726Z,21.20
2019-03-31T08:16:53.292Z,20.80
2019-03-31T08:19:58.801Z,21.07
2019-03-31T08:23:07.350Z,22.87
2019-03-31T08:26:13.042Z,21.00
2019-03-31T08:29:18.557Z,22.43
2019-03-31T08:32:24.080Z,21.27
2019-03-31T08:35:29.695Z,23.13
2019-03-31T08:38:35.164Z,21.30
2019-03-31T08:41:40.636Z,22.77
2019-03-31T08:44:46.276Z,21.53
2019-03-31T08:47:51.831Z,21.63
2019-03-31T08:50:57.448Z,21.67
2019-03-31T08:54:03.014Z,22.47
2019-03-31T08:57:08.525Z,21.50
2019-03-31T09:00:22.605Z,20.33
2019-03-31T09:03:28.113Z,19.30
2019-03-31T09:06:33.731Z,19.87
2019-03-31T09:09:39.207Z,20.87
2019-03-31T09:12:48.181Z,19.73
2019-03-31T09:15:52.113Z,20.43
2019-03-31T09:18:57.696Z,22.57
2019-03-31T09:22:05.076Z,21.90
2019-03-31T09:25:10.853Z,21.07
2019-03-31T09:28:16.418Z,20.20
2019-03-31T09:31:21.971Z,20.03
2019-03-31T09:34:27.471Z,20.57
2019-03-31T09:37:33.029Z,19.43
2019-03-31T09:40:38.777Z,21.43
2019-03-31T09:43:44.326Z,19.73
2019-03-31T09:46:49.810Z,19.63
2019-03-31T09:49:55.269Z,19.43
2019-03-31T09:53:00.759Z,18.07
2019-03-31T09:56:06.301Z,19.20
2019-03-31T09:59:11.792Z,19.23
2019-03-31T10:02:17.348Z,18.67
2019-03-31T10:05:22.836Z,17.97
2019-03-31T10:08:28.564Z,18.37
2019-03-31T10:11:34.244Z,19.20
2019-03-31T10:14:39.740Z,19.50
2019-03-31T10:17:45.205Z,17.93
2019-03-31T10:20:50.768Z,18.00
2019-03-31T10:23:56.322Z,17.93
2019-03-31T10:27:01.893Z,19.33
2019-03-31T10:30:08.394Z,16.70
2019-03-31T10:33:13.886Z,18.50
2019-03-31T10:36:19.389Z,17.90
2019-03-31T10:39:24.866Z,15.83
2019-03-31T10:42:30.431Z,14.90
2019-03-31T10:45:35.988Z,15.60
2019-03-31T10:48:41.465Z,14.73
2019-03-31T10:51:47.433Z,16.00
2019-03-31T10:54:52.934Z,15.60
2019-03-31T10:57:59.409Z,15.63
2019-03-31T11:01:05.683Z,13.73
2019-03-31T11:04:11.324Z,14.27
2019-03-31T11:07:16.813Z,15.40
2019-03-31T11:10:22.577Z,12.40
2019-03-31T11:13:28.251Z,15.50
2019-03-31T11:16:33.812Z,15.40
2019-03-31T11:19:40.708Z,14.53
2019-03-31T11:22:54.469Z,15.83
2019-03-31T11:26:00.454Z,13.97
2019-03-31T11:29:06.085Z,11.83
2019-03-31T11:32:12.755Z,9.50
2019-03-31T11:35:18.481Z,11.40
2019-03-31T11:38:23.979Z,12.13
2019-03-31T11:41:29.527Z,14.13
2019-03-31T11:44:35.024Z,13.23
2019-03-31T11:47:40.582Z,11.07
2019-03-31T11:50:46.133Z,9.50
2019-03-31T11:53:51.602Z,9.90
2019-03-31T11:56:57.162Z,8.70
2019-03-31T12:00:02.727Z,9.93
2019-03-31T12:03:08.279Z,8.60
2019-03-31T12:06:13.826Z,8.70
2019-03-31T12:09:19.292Z,8.60
2019-03-31T12:12:24.768Z,7.80
2019-03-31T12:15:30.316Z,9.40
2019-03-31T12:18:35.857Z,9.50
2019-03-31T12:21:41.336Z,8.63
2019-03-31T12:24:46.815Z,8.00
2019-03-31T12:27:52.367Z,8.17
2019-03-31T12:30:57.826Z,7.40
2019-03-31T12:34:03.387Z,6.27
2019-03-31T12:37:08.922Z,6.00
2019-03-31T12:40:29.203Z,12.20
2019-03-31T12:43:34.780Z,8.23
2019-03-31T12:46:40.488Z,6.67
2019-03-31T12:49:45.957Z,6.23
2019-03-31T12:52:51.739Z,5.87
2019-03-31T12:56:00.252Z,5.50
2019-03-31T12:59:04.521Z,5.63
2019-03-31T13:02:10.054Z,6.03
2019-03-31T13:05:15.721Z,6.07
2019-03-31T13:08:21.223Z,6.13
2019-03-31T13:11:26.827Z,5.30
2019-03-31T13:14:32.379Z,5.73
2019-03-31T13:17:37.908Z,7.00
2019-03-31T13:20:43.869Z,6.00
2019-03-31T13:23:49.818Z,6.03
2019-03-31T13:26:55.488Z,7.13
2019-03-31T13:30:00.970Z,5.80
2019-03-31T13:33:06.521Z,8.00
2019-03-31T13:36:12.378Z,7.90
2019-03-31T13:39:17.872Z,6.80
2019-03-31T13:42:23.407Z,7.53
2019-03-31T13:45:28.981Z,7.63
2019-03-31T13:48:34.522Z,8.10
2019-03-31T13:51:40.079Z,6.80
2019-03-31T13:54:45.557Z,6.90
2019-03-31T13:57:52.657Z,7.40
2019-03-31T14:00:58.299Z,6.30
2019-03-31T14:04:04.024Z,7.47
2019-03-31T14:07:09.504Z,6.30
2019-03-31T14:10:15.381Z,5.73
2019-03-31T14:13:20.957Z,5.30
2019-03-31T14:16:29.049Z,5.83
2019-03-31T14:19:33.697Z,7.60
2019-03-31T14:22:39.163Z,7.60
2019-03-31T14:25:44.642Z,7.10
2019-03-31T14:28:50.245Z,5.87
2019-03-31T14:31:55.799Z,6.00
2019-03-31T14:35:01.435Z,5.90
2019-03-31T14:38:08.479Z,5.80
2019-03-31T14:41:14.009Z,5.77
2019-03-31T14:44:19.630Z,5.67
2019-03-31T14:47:26.796Z,5.30
2019-03-31T14:50:35.395Z,6.00
2019-03-31T14:53:41.255Z,6.00
2019-03-31T14:56:47.090Z,7.03
2019-03-31T14:59:52.722Z,7.00
2019-03-31T15:02:58.471Z,5.77
2019-03-31T15:06:04.215Z,6.63
2019-03-31T15:09:11.037Z,7.30
2019-03-31T15:12:16.528Z,9.70
2019-03-31T15:15:22.141Z,8.87
2019-03-31T15:18:27.691Z,8.10
2019-03-31T15:21:34.817Z,9.43
2019-03-31T15:24:40.292Z,8.60
2019-03-31T15:27:46.070Z,8.10
2019-03-31T15:30:51.789Z,9.10
2019-03-31T15:33:57.261Z,8.40
2019-03-31T15:37:02.942Z,7.57
2019-03-31T15:40:08.709Z,9.40
2019-03-31T15:43:14.443Z,9.77
2019-03-31T15:46:19.901Z,8.73
2019-03-31T15:49:25.601Z,8.93
2019-03-31T15:52:31.184Z,9.40
2019-03-31T15:55:36.877Z,8.83
2019-03-31T15:58:42.641Z,11.10
2019-03-31T16:01:48.321Z,15.43
2019-03-31T16:04:53.809Z,15.10
2019-03-31T16:07:58.745Z,14.43
2019-03-31T16:11:04.964Z,13.50
2019-03-31T16:14:10.141Z,13.67
2019-03-31T16:17:15.117Z,15.10
2019-03-31T16:20:20.132Z,14.50
2019-03-31T16:23:25.141Z,14.37
2019-03-31T16:26:30.075Z,13.33
2019-03-31T16:29:35.074Z,13.63
2019-03-31T16:32:40.005Z,14.77
2019-03-31T16:35:45.099Z,14.87
2019-03-31T16:38:50.049Z,13.13
2019-03-31T16:41:55.061Z,14.73
2019-03-31T16:45:03.158Z,14.60
2019-03-31T16:48:08.253Z,14.47
2019-03-31T16:51:13.348Z,15.40
2019-03-31T16:54:18.383Z,15.30
2019-03-31T16:57:23.500Z,16.20
2019-03-31T17:00:28.522Z,15.60
2019-03-31T17:03:33.537Z,15.67
2019-03-31T17:06:38.534Z,19.87
2019-03-31T17:09:51.262Z,23.67
2019-03-31T17:12:50.192Z,30.47
2019-03-31T17:15:55.125Z,35.33
2019-03-31T17:19:00.301Z,39.17
2019-03-31T17:22:05.357Z,35.10
2019-03-31T17:25:10.469Z,32.40
2019-03-31T17:28:15.413Z,34.67
2019-03-31T17:31:20.417Z,35.80
2019-03-31T17:34:25.366Z,34.70
2019-03-31T17:37:30.378Z,38.30
2019-03-31T17:40:35.772Z,40.20
2019-03-31T17:43:40.801Z,36.37
2019-03-31T17:46:46.353Z,38.60
2019-03-31T17:49:51.324Z,35.97
2019-03-31T17:52:56.473Z,38.80
2019-03-31T17:56:01.534Z,40.10
2019-03-31T17:59:08.858Z,39.90
2019-03-31T18:02:13.500Z,41.07
2019-03-31T18:05:18.500Z,39.17
2019-03-31T18:08:23.511Z,39.33
2019-03-31T18:11:28.417Z,40.57
2019-03-31T18:14:33.413Z,43.10
2019-03-31T18:17:38.348Z,38.50
2019-03-31T18:20:43.365Z,40.27
2019-03-31T18:23:48.289Z,39.80
2019-03-31T18:26:53.289Z,39.10
2019-03-31T18:29:58.221Z,39.40
2019-03-31T18:33:03.277Z,40.30
2019-03-31T18:36:08.276Z,38.43
2019-03-31T18:39:13.277Z,39.17
2019-03-31T18:42:18.270Z,38.70
2019-03-31T18:45:23.196Z,37.67
2019-03-31T18:48:28.228Z,39.13
2019-03-31T18:51:33.162Z,38.67
2019-03-31T18:54:46.321Z,38.23
2019-03-31T18:58:16.473Z,36.50
2019-03-31T19:01:37.104Z,38.77
2019-03-31T19:04:55.148Z,33.30
2019-03-31T19:08:18.507Z,35.20
2019-03-31T19:12:01.156Z,34.13
2019-03-31T19:15:20.148Z,32.50
2019-03-31T19:18:44.377Z,32.30
2019-03-31T19:22:04.888Z,30.40
2019-03-31T19:25:22.830Z,30.33
2019-03-31T19:28:49.057Z,31.57
2019-03-31T19:32:12.067Z,32.07
2019-03-31T19:35:51.297Z,30.53
2019-03-31T19:39:14.396Z,32.43
2019-03-31T19:42:33.996Z,32.00
2019-03-31T19:45:58.572Z,31.80
2019-03-31T19:49:24.489Z,30.30
2019-03-31T19:52:39.582Z,30.80
2019-03-31T19:56:07.318Z,32.90
2019-03-31T19:59:32.106Z,31.20
2019-03-31T20:02:53.061Z,33.07
2019-03-31T20:06:23.645Z,32.80
2019-03-31T20:09:52.721Z,30.90
2019-03-31T20:13:25.932Z,31.17
2019-03-31T20:16:55.792Z,31.83
2019-03-31T20:20:25.559Z,33.70
2019-03-31T20:23:55.740Z,32.37
2019-03-31T20:27:08.522Z,30.90
2019-03-31T20:30:22.697Z,32.50
2019-03-31T20:33:46.846Z,33.67
2019-03-31T20:37:10.850Z,33.53
2019-03-31T20:40:33.802Z,33.90
2019-03-31T20:44:03.887Z,32.73
2019-03-31T20:47:08.804Z,33.47
2019-03-31T20:50:13.888Z,34.77
2019-03-31T20:53:18.823Z,35.07
2019-03-31T20:56:23.765Z,34.20
2019-03-31T20:59:28.694Z,34.70
2019-03-31T21:02:33.741Z,34.43
2019-03-31T21:05:38.665Z,31.67
2019-03-31T21:08:43.583Z,33.07
2019-03-31T21:11:48.521Z,33.83
2019-03-31T21:14:56.613Z,34.20
2019-03-31T21:18:01.624Z,35.77
2019-03-31T21:21:06.616Z,33.80
2019-03-31T21:24:11.609Z,36.30
2019-03-31T21:27:16.538Z,33.13
2019-03-31T21:30:21.536Z,33.67
2019-03-31T21:33:26.453Z,35.27
2019-03-31T21:36:31.401Z,33.67
2019-03-31T21:39:36.336Z,34.73
2019-03-31T21:42:41.657Z,35.50
2019-03-31T21:45:47.265Z,33.83
2019-03-31T21:48:52.196Z,34.70
2019-03-31T21:51:57.209Z,35.70
2019-03-31T21:55:02.127Z,33.93
2019-03-31T21:58:07.040Z,32.97
2019-03-31T22:01:12.520Z,35.13
2019-03-31T22:04:17.454Z,31.33
2019-03-31T22:07:22.733Z,33.50
2019-03-31T22:10:27.650Z,36.40
2019-03-31T22:13:32.584Z,33.87
2019-03-31T22:16:37.486Z,36.40
2019-03-31T22:19:42.408Z,35.40
2019-03-31T22:22:47.358Z,36.33
2019-03-31T22:25:52.412Z,36.30
2019-03-31T22:28:57.374Z,37.00
2019-03-31T22:32:02.292Z,36.93
2019-03-31T22:35:07.361Z,37.80
2019-03-31T22:38:12.349Z,37.13
2019-03-31T22:41:17.416Z,37.57
2019-03-31T22:44:22.327Z,33.93
2019-03-31T22:47:27.237Z,37.73
2019-03-31T22:50:32.166Z,38.47
2019-03-31T22:53:37.097Z,36.53
2019-03-31T22:56:42.008Z,38.33
2019-03-31T22:59:47.015Z,36.90
2019-03-31T23:02:52.081Z,36.90
2019-03-31T23:05:57.288Z,37.90
2019-03-31T23:09:02.286Z,37.07
2019-03-31T23:12:07.196Z,39.50
2019-03-31T23:15:12.258Z,35.83
2019-03-31T23:18:17.265Z,38.20
2019-03-31T23:21:22.232Z,38.70
2019-03-31T23:24:27.156Z,39.50
2019-03-31T23:27:32.072Z,36.00
2019-03-31T23:30:37.090Z,40.53
2019-03-31T23:33:42.003Z,36.73
2019-03-31T23:36:46.906Z,40.67
2019-03-31T23:39:53.429Z,37.57
2019-03-31T23:42:58.647Z,35.60
2019-03-31T23:46:03.557Z,39.20
2019-03-31T23:49:08.621Z,36.40
2019-03-31T23:52:13.611Z,37.80
2019-03-31T23:55:18.525Z,37.80
2019-03-31T23:58:23.465Z,38.50
